Time;durP1;ratioP1;P1;durP2;ratioP2;P2;SDS_P1;SDS_P2;PMS_P1;PMS_P2;Temp;Humidity;BMP_temperature;BMP_pressure;BME280_temperature;BME280_humidity;BME280_pressure;Samples;Min_cycle;Max_cycle;Signal;HPM_P1;HPM_P2
2022/01/28 00:01:05;;;;;;;7.60;5.27;;;4.50;99.90;;;;;;5138670;27;20225;-68
2022/01/28 00:03:34;;;;;;;9.73;5.27;;;4.50;99.90;;;;;;5132386;27;20227;-67
2022/01/28 00:06:01;;;;;;;8.13;4.53;;;4.50;99.90;;;;;;5128307;27;20287;-67
2022/01/28 00:08:29;;;;;;;8.43;4.77;;;4.50;99.90;;;;;;5122232;27;20200;-67
2022/01/28 00:10:56;;;;;;;8.87;4.70;;;4.60;99.90;;;;;;5136050;27;20657;-67
2022/01/28 00:13:29;;;;;;;10.37;5.40;;;4.60;99.90;;;;;;5114413;28;20208;-67
2022/01/28 00:38:07;;;;;;;6.20;4.53;;;4.70;99.90;;;;;;5117741;27;20268;-67
2022/01/28 00:40:36;;;;;;;8.70;4.07;;;4.70;99.90;;;;;;5123961;27;20207;-66
2022/01/28 00:43:04;;;;;;;9.27;4.90;;;4.60;99.90;;;;;;5116881;27;20211;-66
2022/01/28 00:45:31;;;;;;;12.50;4.60;;;4.60;99.90;;;;;;5134998;27;20203;-67
2022/01/28 00:47:59;;;;;;;6.50;3.77;;;4.60;99.90;;;;;;5142728;27;20232;-67
2022/01/28 00:50:26;;;;;;;10.70;3.53;;;4.60;99.90;;;;;;5125664;27;20242;-67
2022/01/28 00:52:53;;;;;;;7.27;3.43;;;4.60;99.90;;;;;;5119595;27;20199;-68
2022/01/28 00:55:20;;;;;;;4.93;3.27;;;4.50;99.90;;;;;;5128728;27;20679;-67
2022/01/28 00:57:48;;;;;;;5.37;3.17;;;4.50;99.90;;;;;;5121429;27;20705;-66
2022/01/28 01:00:15;;;;;;;5.43;2.57;;;4.50;99.90;;;;;;5135159;27;20231;-67
2022/01/28 01:02:42;;;;;;;8.87;4.70;;;4.50;99.90;;;;;;5131414;27;20207;-67
2022/01/28 01:05:09;;;;;;;4.87;3.20;;;4.50;99.90;;;;;;5120700;27;20208;-67
2022/01/28 01:07:37;;;;;;;5.30;2.80;;;4.40;99.90;;;;;;5117014;27;20231;-66
2022/01/28 01:10:06;;;;;;;4.87;2.57;;;4.40;99.90;;;;;;5134193;27;20203;-67
2022/01/28 01:12:36;;;;;;;8.20;3.00;;;4.40;99.90;;;;;;5142523;27;20214;-67
2022/01/28 01:15:06;;;;;;;3.90;2.70;;;4.40;99.90;;;;;;5116886;27;20219;-66
2022/01/28 01:17:37;;;;;;;6.10;2.70;;;4.30;99.90;;;;;;5122541;27;20221;-67
2022/01/28 01:23:04;;;;;;;4.47;2.43;;;4.30;99.90;;;;;;5086945;27;20203;-67
2022/01/28 01:25:33;;;;;;;8.47;2.50;;;4.30;99.90;;;;;;5119990;27;20195;-67
2022/01/28 01:28:00;;;;;;;6.27;3.03;;;4.20;99.90;;;;;;5112819;28;20200;-68
2022/01/28 01:30:32;;;;;;;2.80;2.00;;;4.20;99.90;;;;;;5120968;27;20291;-67
2022/01/28 01:32:59;;;;;;;5.17;2.00;;;4.20;99.90;;;;;;5134509;27;20205;-66
2022/01/28 01:35:26;;;;;;;5.47;1.93;;;4.20;99.90;;;;;;5139880;27;20587;-67
2022/01/28 01:37:53;;;;;;;4.87;1.97;;;4.10;99.90;;;;;;5135752;27;20294;-67
2022/01/28 01:40:27;;;;;;;5.37;2.07;;;4.10;99.90;;;;;;5119149;27;20184;-67
2022/01/28 01:43:06;;;;;;;4.40;1.83;;;4.20;99.90;;;;;;5112002;28;20697;-67
2022/01/28 01:45:57;;;;;;;4.50;1.73;;;4.10;99.90;;;;;;5122082;27;20187;-67
2022/01/28 01:53:53;;;;;;;6.23;1.90;;;4.10;99.90;;;;;;5117355;27;20202;-67
2022/01/28 01:56:21;;;;;;;2.40;1.60;;;4.20;99.90;;;;;;5111392;28;20235;-67
2022/01/28 01:58:48;;;;;;;2.67;1.60;;;4.20;99.90;;;;;;5136042;27;20212;-66
2022/01/28 02:01:17;;;;;;;4.70;1.30;;;4.20;99.90;;;;;;5123469;27;20204;-67
2022/01/28 02:03:44;;;;;;;1.93;1.23;;;4.20;99.90;;;;;;5135637;27;20242;-67
2022/01/28 02:06:11;;;;;;;1.90;1.43;;;4.20;99.90;;;;;;5123585;27;20328;-66
2022/01/28 02:08:38;;;;;;;1.73;1.50;;;4.30;99.90;;;;;;5115035;27;20207;-67
2022/01/28 02:11:05;;;;;;;4.73;1.90;;;4.30;99.90;;;;;;5126837;27;20200;-66
2022/01/28 02:13:35;;;;;;;4.57;2.07;;;4.30;99.90;;;;;;5111911;28;20208;-66
2022/01/28 02:16:02;;;;;;;2.97;1.93;;;4.30;99.90;;;;;;5123787;27;20219;-67
2022/01/28 02:18:31;;;;;;;4.40;1.83;;;4.30;99.90;;;;;;5122269;27;20234;-66
2022/01/28 02:21:05;;;;;;;4.77;1.90;;;4.30;99.90;;;;;;5131752;27;20211;-66
2022/01/28 02:23:33;;;;;;;2.53;1.60;;;4.30;99.90;;;;;;5131809;27;20206;-66
2022/01/28 02:26:01;;;;;;;3.47;1.63;;;4.30;99.90;;;;;;5126588;27;20239;-66
2022/01/28 02:28:30;;;;;;;2.60;1.77;;;4.30;99.90;;;;;;5123300;27;20207;-67
2022/01/28 02:30:57;;;;;;;6.37;2.30;;;4.30;99.90;;;;;;5122473;27;20200;-67
2022/01/28 02:33:25;;;;;;;3.03;1.87;;;4.30;99.90;;;;;;5130203;27;20597;-66
2022/01/28 02:35:52;;;;;;;4.63;2.57;;;4.30;99.90;;;;;;5126467;27;20250;-67
2022/01/28 02:38:23;;;;;;;4.70;2.30;;;4.30;99.90;;;;;;5126273;27;20202;-67
2022/01/28 02:40:55;;;;;;;3.23;2.07;;;4.30;99.90;;;;;;5125382;27;20203;-67
2022/01/28 02:43:31;;;;;;;4.77;1.83;;;4.30;99.90;;;;;;5111108;28;20870;-67
2022/01/28 02:46:06;;;;;;;4.13;1.87;;;4.30;99.90;;;;;;5114178;27;20680;-68
2022/01/28 02:48:35;;;;;;;4.17;1.60;;;4.20;99.90;;;;;;5115704;27;20668;-65
2022/01/28 02:51:06;;;;;;;3.63;1.60;;;4.20;99.90;;;;;;5123133;27;20208;-66
2022/01/28 02:53:41;;;;;;;3.93;1.60;;;4.20;99.90;;;;;;5126414;27;20669;-68
2022/01/28 02:56:15;;;;;;;5.83;1.80;;;4.10;99.90;;;;;;5137717;27;20244;-66
2022/01/28 02:58:42;;;;;;;4.60;1.63;;;4.10;99.90;;;;;;5117165;27;20194;-67
2022/01/28 03:01:12;;;;;;;3.83;1.60;;;4.00;99.90;;;;;;5119221;28;20212;-67
2022/01/28 03:03:40;;;;;;;6.47;2.00;;;4.00;99.90;;;;;;5124052;28;20211;-66
2022/01/28 03:06:07;;;;;;;3.53;1.40;;;4.00;99.90;;;;;;5120207;27;20228;-66
2022/01/28 03:08:35;;;;;;;4.20;1.53;;;3.90;99.90;;;;;;5113807;27;20208;-67
2022/01/28 03:11:31;;;;;;;3.40;1.50;;;3.90;99.90;;;;;;5112486;27;20567;-67
2022/01/28 03:14:13;;;;;;;3.60;1.73;;;3.80;99.90;;;;;;5114501;28;20211;-67
2022/01/28 03:16:54;;;;;;;5.60;1.87;;;3.80;99.90;;;;;;5120659;27;20216;-68
2022/01/28 03:19:24;;;;;;;4.33;1.50;;;3.80;99.90;;;;;;5139161;27;20248;-67
2022/01/28 03:21:55;;;;;;;6.17;2.00;;;3.80;99.90;;;;;;5130783;27;20218;-67
2022/01/28 03:24:24;;;;;;;4.00;1.43;;;3.80;99.90;;;;;;5127594;27;20202;-66
2022/01/28 03:26:55;;;;;;;2.13;1.67;;;3.80;99.90;;;;;;5120307;28;20204;-67
2022/01/28 03:29:21;;;;;;;4.40;1.93;;;3.70;99.90;;;;;;5129190;27;20196;-67
2022/01/28 03:31:48;;;;;;;4.17;1.60;;;3.70;99.90;;;;;;5121140;27;20651;-67
2022/01/28 03:34:15;;;;;;;6.10;2.00;;;3.60;99.90;;;;;;5133788;27;20209;-66
2022/01/28 03:36:42;;;;;;;4.00;2.20;;;3.60;99.90;;;;;;5134194;27;20219;-67
2022/01/28 03:39:10;;;;;;;3.17;1.73;;;3.60;99.90;;;;;;5129390;27;20259;-67
2022/01/28 03:41:38;;;;;;;6.00;2.27;;;3.60;99.90;;;;;;5115184;27;20243;-66
2022/01/28 03:44:06;;;;;;;4.80;2.20;;;3.60;99.90;;;;;;5114042;28;20212;-67
2022/01/28 03:46:33;;;;;;;3.73;2.13;;;3.50;99.90;;;;;;5143467;27;20727;-67
2022/01/28 03:49:00;;;;;;;2.77;1.77;;;3.50;99.90;;;;;;5129373;27;20207;-67
2022/01/28 03:51:27;;;;;;;4.97;1.87;;;3.50;99.90;;;;;;5123183;27;20207;-67
2022/01/28 03:53:53;;;;;;;3.80;1.80;;;3.50;99.90;;;;;;5127316;27;20215;-66
2022/01/28 03:56:20;;;;;;;5.93;2.00;;;3.40;99.90;;;;;;5118787;27;20228;-67
2022/01/28 03:58:49;;;;;;;6.90;1.80;;;3.40;99.90;;;;;;5122758;27;20232;-67
2022/01/28 04:01:19;;;;;;;4.33;2.60;;;3.50;99.90;;;;;;5125135;27;20212;-67
2022/01/28 04:04:07;;;;;;;3.27;1.50;;;3.40;99.90;;;;;;5129054;27;20292;-67
2022/01/28 04:12:03;;;;;;;3.60;1.40;;;3.40;99.90;;;;;;5126796;27;20280;-67
2022/01/28 04:14:43;;;;;;;4.87;1.50;;;3.30;99.90;;;;;;5113803;27;20204;-67
2022/01/28 04:17:22;;;;;;;2.77;1.23;;;3.40;99.90;;;;;;5134720;27;20355;-67
2022/01/28 04:19:52;;;;;;;2.07;1.43;;;3.40;99.90;;;;;;5121025;27;20195;-67
2022/01/28 04:22:20;;;;;;;4.97;1.73;;;3.30;99.90;;;;;;5145363;27;20286;-67
2022/01/28 04:24:47;;;;;;;4.80;1.77;;;3.40;99.90;;;;;;5129023;27;20208;-68
2022/01/28 04:27:14;;;;;;;3.57;1.80;;;3.30;99.90;;;;;;5141094;27;20311;-67
2022/01/28 04:29:42;;;;;;;3.43;1.63;;;3.30;99.90;;;;;;5128037;27;20653;-66
2022/01/28 04:32:10;;;;;;;4.10;1.30;;;3.40;99.90;;;;;;5135631;27;20564;-67
2022/01/28 04:34:37;;;;;;;2.33;1.50;;;3.30;99.90;;;;;;5116986;27;20231;-67
2022/01/28 04:37:14;;;;;;;4.07;1.20;;;3.30;99.90;;;;;;5123717;27;20695;-67
2022/01/28 04:39:48;;;;;;;3.00;1.13;;;3.30;99.90;;;;;;5115769;27;20567;-67
2022/01/28 04:42:32;;;;;;;3.60;1.33;;;3.40;99.90;;;;;;5122534;27;20588;-66
2022/01/28 04:45:06;;;;;;;2.87;1.30;;;3.30;99.90;;;;;;5144730;27;20588;-67
2022/01/28 04:47:41;;;;;;;1.97;1.33;;;3.30;99.90;;;;;;5133071;27;20664;-67
2022/01/28 04:50:16;;;;;;;3.93;1.40;;;3.30;99.90;;;;;;5130608;27;20256;-67
2022/01/28 04:55:50;;;;;;;3.17;1.70;;;3.30;99.90;;;;;;5129478;27;20199;-66
2022/01/28 04:58:32;;;;;;;2.47;1.57;;;3.30;99.90;;;;;;5116034;27;20261;-67
2022/01/28 05:01:20;;;;;;;2.30;1.50;;;3.30;99.90;;;;;;5134194;27;20647;-67
2022/01/28 05:04:00;;;;;;;3.80;1.57;;;3.30;99.90;;;;;;5122812;27;20205;-67
2022/01/28 05:12:39;;;;;;;3.33;1.43;;;3.40;99.90;;;;;;5111326;28;20207;-67
2022/01/28 05:26:25;;;;;;;1.83;1.23;;;3.40;99.90;;;;;;5045360;28;20595;-67
2022/01/28 05:28:52;;;;;;;2.73;0.90;;;3.40;99.90;;;;;;5115788;27;20269;-66
2022/01/28 05:31:20;;;;;;;2.97;1.10;;;3.50;99.90;;;;;;5120040;27;20202;-67
2022/01/28 05:33:48;;;;;;;1.83;1.03;;;3.50;99.90;;;;;;5141069;27;20692;-67
2022/01/28 05:36:15;;;;;;;2.83;1.10;;;3.50;99.90;;;;;;5148985;27;20219;-67
2022/01/28 05:38:42;;;;;;;1.60;0.97;;;3.50;99.90;;;;;;5128570;27;20199;-67
2022/01/28 05:41:09;;;;;;;1.43;1.10;;;3.60;99.90;;;;;;5131169;27;20206;-67
2022/01/28 05:43:36;;;;;;;1.90;0.90;;;3.60;99.90;;;;;;5111817;28;20296;-67
2022/01/28 05:46:03;;;;;;;1.97;1.00;;;3.60;99.90;;;;;;5130835;27;20209;-67
2022/01/28 05:48:31;;;;;;;2.37;1.20;;;3.60;99.90;;;;;;5114560;27;20183;-66
2022/01/28 05:50:59;;;;;;;1.33;0.90;;;3.60;99.90;;;;;;5127500;27;20217;-66
2022/01/28 05:53:26;;;;;;;2.10;1.03;;;3.70;99.90;;;;;;5117730;27;20211;-66
2022/01/28 05:55:52;;;;;;;3.17;1.03;;;3.70;99.90;;;;;;5128380;27;20207;-67
2022/01/28 05:58:20;;;;;;;3.20;1.60;;;3.80;99.90;;;;;;5117249;27;20422;-66
2022/01/28 06:00:46;;;;;;;2.07;1.30;;;3.80;99.90;;;;;;5145828;27;20210;-67
2022/01/28 06:03:14;;;;;;;2.17;1.30;;;3.80;99.90;;;;;;5132862;27;20242;-66
2022/01/28 06:05:41;;;;;;;2.03;1.00;;;3.80;99.90;;;;;;5124525;27;20204;-67
2022/01/28 06:08:09;;;;;;;2.33;1.50;;;3.90;99.90;;;;;;5120742;27;20245;-67
2022/01/28 06:10:36;;;;;;;3.20;1.57;;;3.90;99.90;;;;;;5115410;27;20200;-66
2022/01/28 06:13:05;;;;;;;3.00;1.00;;;3.90;99.90;;;;;;5110868;27;20567;-66
2022/01/28 06:15:32;;;;;;;3.03;1.03;;;3.90;99.90;;;;;;5134041;27;20198;-66
2022/01/28 06:17:59;;;;;;;1.43;1.00;;;3.90;99.90;;;;;;5116865;28;20249;-66
2022/01/28 06:20:26;;;;;;;1.60;1.17;;;3.90;99.90;;;;;;5131583;27;20205;-66
2022/01/28 06:22:52;;;;;;;2.43;1.20;;;3.90;99.90;;;;;;5116017;27;20204;-67
2022/01/28 06:25:20;;;;;;;1.63;1.00;;;4.00;99.90;;;;;;5131030;27;20217;-66
2022/01/28 06:27:47;;;;;;;3.27;1.07;;;4.00;99.90;;;;;;5131138;27;20295;-67
2022/01/28 06:30:16;;;;;;;1.80;1.10;;;3.90;99.90;;;;;;5125527;27;20199;-67
2022/01/28 06:32:44;;;;;;;4.00;1.17;;;3.90;99.90;;;;;;5133973;27;20652;-66
2022/01/28 06:35:11;;;;;;;1.27;1.03;;;3.90;99.90;;;;;;5118700;27;20209;-67
2022/01/28 06:37:39;;;;;;;1.83;1.50;;;3.90;99.90;;;;;;5116381;28;20219;-67
2022/01/28 06:40:08;;;;;;;2.03;1.37;;;3.90;99.90;;;;;;5118537;27;20225;-68
2022/01/28 06:42:36;;;;;;;3.97;1.23;;;3.90;99.90;;;;;;5110514;27;20227;-66
2022/01/28 06:45:04;;;;;;;1.73;1.20;;;3.90;99.90;;;;;;5128051;27;20219;-67
2022/01/28 06:47:32;;;;;;;1.77;1.10;;;3.90;99.90;;;;;;5122625;28;20210;-69
2022/01/28 06:50:00;;;;;;;1.50;1.20;;;3.90;99.90;;;;;;5126575;27;20668;-67
2022/01/28 06:52:27;;;;;;;1.97;1.20;;;3.90;99.90;;;;;;5132141;27;20265;-66
2022/01/28 06:54:54;;;;;;;2.77;1.27;;;4.00;99.90;;;;;;5119475;27;20286;-66
2022/01/28 06:57:21;;;;;;;1.43;1.10;;;3.90;99.90;;;;;;5116932;27;20263;-65
2022/01/28 06:59:49;;;;;;;3.50;1.13;;;4.00;99.90;;;;;;5128930;27;20630;-67
2022/01/28 07:02:16;;;;;;;1.50;1.10;;;4.00;99.90;;;;;;5126270;27;20210;-66
2022/01/28 07:04:42;;;;;;;3.37;1.50;;;4.00;99.90;;;;;;5121522;28;20208;-67
2022/01/28 07:07:09;;;;;;;2.50;1.13;;;4.00;99.90;;;;;;5120994;27;20232;-66
2022/01/28 07:09:36;;;;;;;2.17;1.07;;;3.90;99.90;;;;;;5114879;28;20294;-67
2022/01/28 07:12:04;;;;;;;1.73;1.07;;;3.90;99.90;;;;;;5115083;28;20239;-67
2022/01/28 07:14:31;;;;;;;3.10;1.03;;;3.90;99.90;;;;;;5131157;27;20601;-67
2022/01/28 07:16:59;;;;;;;3.90;2.00;;;3.90;99.90;;;;;;5117753;27;20319;-67
2022/01/28 07:19:26;;;;;;;1.50;1.10;;;3.90;99.90;;;;;;5139601;27;20598;-67
2022/01/28 07:21:53;;;;;;;1.87;1.20;;;3.90;99.90;;;;;;5133721;27;20730;-66
2022/01/28 07:24:20;;;;;;;2.67;1.10;;;3.90;99.90;;;;;;5143184;27;20199;-67
2022/01/28 07:26:47;;;;;;;2.60;1.40;;;3.90;99.90;;;;;;5122899;27;20242;-68
2022/01/28 07:29:14;;;;;;;0.87;0.87;;;4.00;99.90;;;;;;5122913;27;20567;-66
2022/01/28 07:31:42;;;;;;;2.00;0.90;;;3.90;99.90;;;;;;5114522;28;20315;-67
2022/01/28 07:34:11;;;;;;;1.87;1.10;;;3.90;99.90;;;;;;5128131;27;20606;-67
2022/01/28 07:36:39;;;;;;;1.43;1.00;;;4.00;99.90;;;;;;5128552;27;20231;-68
2022/01/28 07:39:07;;;;;;;1.30;1.13;;;3.90;99.90;;;;;;5144393;27;20206;-67
2022/01/28 07:41:34;;;;;;;1.40;1.30;;;3.90;99.90;;;;;;5115499;27;20640;-67
2022/01/28 07:44:01;;;;;;;0.90;0.90;;;3.90;99.90;;;;;;5115774;27;20203;-67
2022/01/28 07:46:28;;;;;;;2.47;1.27;;;4.00;99.90;;;;;;5131466;27;20703;-68
2022/01/28 07:48:55;;;;;;;1.40;1.30;;;4.00;99.90;;;;;;5142700;27;20268;-68
2022/01/28 07:51:24;;;;;;;2.93;1.60;;;4.00;99.90;;;;;;5133162;27;20692;-67
2022/01/28 07:53:51;;;;;;;1.97;1.00;;;2.60;99.90;;;;;;5127989;27;20644;-67
2022/01/28 07:56:18;;;;;;;1.87;1.40;;;4.00;99.90;;;;;;5133359;27;20607;-69
2022/01/28 07:58:45;;;;;;;1.67;1.00;;;4.00;99.90;;;;;;5142568;27;20223;-69
2022/01/28 08:01:12;;;;;;;1.40;1.30;;;4.00;99.90;;;;;;5129694;27;20293;-67
2022/01/28 08:03:41;;;;;;;1.70;1.17;;;4.00;99.90;;;;;;5137474;27;20259;-68
2022/01/28 08:06:08;;;;;;;0.97;0.90;;;4.00;99.90;;;;;;5129364;27;20780;-69
2022/01/28 08:08:36;;;;;;;2.07;1.20;;;3.90;99.90;;;;;;5129010;27;20235;-69
2022/01/28 08:11:04;;;;;;;3.70;1.20;;;4.00;99.90;;;;;;5115470;27;20238;-68
2022/01/28 08:13:31;;;;;;;2.13;1.23;;;3.90;99.90;;;;;;5140830;27;20198;-66
2022/01/28 08:15:58;;;;;;;1.50;0.70;;;3.90;99.90;;;;;;5125202;27;20634;-66
2022/01/28 08:18:25;;;;;;;1.33;1.17;;;4.00;99.90;;;;;;5121904;27;20313;-68
2022/01/28 08:20:52;;;;;;;2.20;1.00;;;4.00;99.90;;;;;;5138541;27;20226;-69
2022/01/28 08:23:19;;;;;;;0.80;0.70;;;4.00;99.90;;;;;;5135444;27;20256;-65
2022/01/28 08:25:50;;;;;;;2.20;0.90;;;4.00;99.90;;;;;;5134104;27;20810;-69
2022/01/28 08:28:17;;;;;;;1.70;1.00;;;4.00;99.90;;;;;;5130381;27;20231;-69
2022/01/28 08:30:44;;;;;;;1.10;0.80;;;4.00;99.90;;;;;;5133952;27;20346;-66
2022/01/28 08:33:11;;;;;;;2.97;0.90;;;4.00;99.90;;;;;;5133953;27;20239;-68
2022/01/28 08:35:40;;;;;;;1.23;0.60;;;3.90;99.90;;;;;;5140855;27;20210;-70
2022/01/28 08:38:14;;;;;;;2.13;1.17;;;4.00;99.90;;;;;;5134434;27;20215;-69
2022/01/28 08:40:41;;;;;;;1.37;0.80;;;4.00;99.90;;;;;;5134911;27;20210;-66
2022/01/28 08:43:09;;;;;;;0.70;0.70;;;3.90;99.90;;;;;;5127778;27;20203;-65
2022/01/28 08:45:36;;;;;;;0.77;0.70;;;3.90;99.90;;;;;;5134792;27;20293;-70
2022/01/28 08:48:03;;;;;;;0.60;0.60;;;3.90;99.90;;;;;;5132789;27;20207;-67
2022/01/28 08:50:30;;;;;;;0.87;0.80;;;3.90;99.90;;;;;;5127173;27;20203;-69
2022/01/28 08:52:57;;;;;;;1.57;1.00;;;3.80;99.90;;;;;;5127102;27;20203;-69
2022/01/28 08:55:25;;;;;;;1.70;1.60;;;3.80;99.90;;;;;;5135391;27;20199;-69
2022/01/28 08:57:53;;;;;;;1.00;0.70;;;3.80;99.90;;;;;;5137109;27;20251;-69
2022/01/28 09:00:23;;;;;;;0.70;0.70;;;3.80;99.90;;;;;;5131961;27;20204;-71
2022/01/28 09:02:51;;;;;;;1.03;0.70;;;3.80;99.90;;;;;;5138530;27;20624;-74
2022/01/28 09:05:19;;;;;;;1.77;1.10;;;3.80;99.90;;;;;;5138882;27;20680;-69
2022/01/28 09:07:48;;;;;;;0.80;0.80;;;3.80;99.90;;;;;;5122172;27;20227;-69
2022/01/28 09:10:18;;;;;;;0.80;0.80;;;3.80;99.90;;;;;;5125059;27;20615;-68
2022/01/28 09:13:10;;;;;;;1.63;1.30;;;3.80;99.90;;;;;;5136299;27;20290;-70
2022/01/28 09:15:41;;;;;;;2.07;0.70;;;3.80;99.90;;;;;;5144099;27;20206;-69
2022/01/28 09:18:09;;;;;;;0.63;0.63;;;3.80;99.90;;;;;;5135008;27;20660;-69
2022/01/28 09:20:37;;;;;;;1.13;0.80;;;3.80;99.90;;;;;;5119756;27;20659;-70
2022/01/28 09:23:04;;;;;;;1.53;1.20;;;3.80;99.90;;;;;;5137840;27;20577;-70
2022/01/28 09:25:31;;;;;;;1.10;1.00;;;3.80;99.90;;;;;;5134382;27;20207;-70
2022/01/28 09:27:58;;;;;;;0.97;0.83;;;3.80;99.90;;;;;;5131519;27;20214;-70
2022/01/28 09:30:25;;;;;;;1.00;0.90;;;3.80;99.90;;;;;;5126149;27;20298;-69
2022/01/28 09:32:56;;;;;;;0.90;0.90;;;3.80;99.90;;;;;;5132258;27;20328;-69
2022/01/28 09:35:22;;;;;;;1.10;1.00;;;3.80;99.90;;;;;;5134443;27;20567;-70
2022/01/28 09:37:49;;;;;;;1.23;0.97;;;3.80;99.90;;;;;;5134926;27;20289;-71
2022/01/28 09:40:17;;;;;;;0.80;0.80;;;3.80;99.90;;;;;;5132945;27;20579;-72
2022/01/28 09:42:46;;;;;;;1.33;0.70;;;3.80;99.90;;;;;;5123981;27;20214;-70
2022/01/28 09:45:16;;;;;;;2.23;1.00;;;3.80;99.90;;;;;;5133088;27;20215;-69
2022/01/28 09:47:46;;;;;;;1.10;1.00;;;3.80;99.90;;;;;;5128176;27;20199;-71
2022/01/28 09:50:15;;;;;;;1.40;0.90;;;3.90;99.90;;;;;;5127307;27;20268;-70
2022/01/28 09:52:43;;;;;;;1.20;0.80;;;3.80;99.90;;;;;;5136515;27;20286;-70
2022/01/28 09:55:12;;;;;;;2.33;1.33;;;3.80;99.90;;;;;;5137823;27;20203;-71
2022/01/28 09:57:39;;;;;;;1.60;1.00;;;3.90;99.90;;;;;;5145635;27;20226;-70
2022/01/28 10:00:08;;;;;;;1.73;1.37;;;3.90;99.90;;;;;;5139116;27;20565;-70
2022/01/28 10:02:49;;;;;;;1.77;1.30;;;3.90;99.90;;;;;;5123711;27;20251;-71
2022/01/28 10:05:26;;;;;;;1.43;1.17;;;3.90;99.90;;;;;;5138305;27;20541;-71
2022/01/28 10:08:08;;;;;;;1.33;1.00;;;3.90;99.90;;;;;;5124969;27;20226;-70
2022/01/28 10:10:49;;;;;;;1.37;0.90;;;3.90;99.90;;;;;;5128452;27;20199;-70
2022/01/28 10:13:20;;;;;;;1.77;1.40;;;3.90;99.90;;;;;;5127923;27;20207;-72
2022/01/28 10:15:55;;;;;;;0.90;0.80;;;3.90;99.90;;;;;;5129721;27;20763;-71
2022/01/28 10:18:35;;;;;;;1.87;0.93;;;3.90;99.90;;;;;;5127445;27;20210;-71
2022/01/28 10:21:03;;;;;;;2.40;1.20;;;3.90;99.90;;;;;;5140940;27;20203;-70
2022/01/28 10:23:30;;;;;;;1.37;1.10;;;3.90;99.90;;;;;;5136734;27;20209;-70
2022/01/28 10:26:02;;;;;;;1.00;0.90;;;3.90;99.90;;;;;;5128955;27;20214;-70
2022/01/28 10:28:29;;;;;;;1.37;1.20;;;3.90;99.90;;;;;;5131081;28;20195;-70
2022/01/28 10:30:56;;;;;;;1.47;1.03;;;3.90;99.90;;;;;;5132932;27;20202;-69
2022/01/28 10:33:24;;;;;;;1.80;1.20;;;3.90;99.90;;;;;;5133954;27;20238;-70
2022/01/28 10:35:54;;;;;;;1.93;1.00;;;3.90;99.90;;;;;;5132756;27;20199;-71
2022/01/28 10:38:33;;;;;;;1.47;0.90;;;3.90;99.90;;;;;;5134339;27;20215;-74
2022/01/28 10:41:10;;;;;;;2.57;1.20;;;3.90;99.90;;;;;;5134494;27;20286;-72
2022/01/28 10:43:43;;;;;;;1.10;1.00;;;3.90;99.90;;;;;;5137840;27;20604;-70
2022/01/28 10:46:10;;;;;;;1.73;1.10;;;3.90;99.90;;;;;;5135834;27;20202;-72
2022/01/28 10:48:50;;;;;;;1.43;1.27;;;4.00;99.90;;;;;;5136919;27;20213;-72
2022/01/28 10:51:18;;;;;;;1.63;1.07;;;4.00;99.90;;;;;;5139489;27;20203;-70
2022/01/28 10:54:04;;;;;;;2.07;1.23;;;4.10;99.90;;;;;;5135828;27;20294;-70
2022/01/28 10:56:31;;;;;;;1.20;0.83;;;4.10;99.90;;;;;;5131838;27;20302;-69
2022/01/28 10:58:58;;;;;;;1.67;1.13;;;4.10;99.90;;;;;;5134093;27;20231;-70
2022/01/28 11:01:26;;;;;;;1.33;1.13;;;4.10;99.90;;;;;;5141143;27;20571;-70
2022/01/28 11:03:55;;;;;;;1.93;1.27;;;4.10;99.90;;;;;;5131089;27;20203;-69
2022/01/28 11:06:22;;;;;;;2.03;1.33;;;4.20;99.90;;;;;;5134061;27;20239;-70
2022/01/28 11:08:50;;;;;;;1.17;1.00;;;4.20;99.90;;;;;;5136411;27;20202;-70
2022/01/28 11:11:18;;;;;;;0.90;0.90;;;4.20;99.90;;;;;;5138080;27;20290;-68
2022/01/28 11:13:46;;;;;;;2.43;0.90;;;4.20;99.90;;;;;;5135271;27;20207;-70
2022/01/28 11:16:13;;;;;;;1.90;1.13;;;4.30;99.90;;;;;;5131902;27;20233;-72
2022/01/28 11:18:40;;;;;;;2.13;1.43;;;4.30;99.90;;;;;;5136515;27;20241;-69
2022/01/28 11:21:15;;;;;;;1.30;1.00;;;4.30;99.90;;;;;;5138836;27;20235;-68
2022/01/28 11:23:51;;;;;;;1.93;1.00;;;4.30;99.90;;;;;;5135791;27;20663;-70
2022/01/28 11:26:26;;;;;;;2.70;1.27;;;4.40;99.90;;;;;;5132540;27;20373;-69
2022/01/28 11:29:02;;;;;;;1.30;1.00;;;4.30;99.90;;;;;;5136928;27;20203;-68
2022/01/28 11:31:43;;;;;;;1.00;0.77;;;4.30;99.90;;;;;;5128230;27;20203;-68
2022/01/28 11:34:18;;;;;;;2.43;1.10;;;4.30;99.90;;;;;;5133096;27;20664;-68
2022/01/28 11:36:45;;;;;;;1.57;1.00;;;4.30;99.90;;;;;;5131045;27;20594;-69
2022/01/28 11:39:29;;;;;;;0.80;0.80;;;4.30;99.90;;;;;;5130649;27;20310;-69
2022/01/28 11:42:10;;;;;;;2.40;1.10;;;4.20;99.90;;;;;;5130823;27;20503;-69
2022/01/28 11:44:45;;;;;;;1.90;1.00;;;4.20;99.90;;;;;;5134228;27;20203;-67
2022/01/28 11:47:22;;;;;;;1.33;1.20;;;4.30;99.90;;;;;;5132819;27;20279;-68
2022/01/28 11:50:10;;;;;;;2.03;1.10;;;4.30;99.90;;;;;;5134799;27;20205;-68
2022/01/28 11:52:40;;;;;;;1.90;1.50;;;4.30;99.90;;;;;;5125980;27;20211;-69
2022/01/28 11:55:31;;;;;;;1.30;1.10;;;4.40;99.90;;;;;;5139517;27;20591;-67
2022/01/28 11:58:02;;;;;;;1.87;1.17;;;4.40;99.90;;;;;;5136527;27;20721;-67
2022/01/28 12:00:32;;;;;;;2.07;1.20;;;4.50;99.90;;;;;;5132194;27;20195;-68
2022/01/28 12:02:58;;;;;;;1.47;1.33;;;4.50;99.90;;;;;;5134056;27;20199;-68
2022/01/28 12:05:30;;;;;;;1.27;1.00;;;4.70;99.90;;;;;;5139482;27;20205;-68
2022/01/28 12:07:57;;;;;;;1.73;1.27;;;4.80;99.90;;;;;;5135624;27;20593;-68
2022/01/28 12:10:25;;;;;;;1.87;1.47;;;4.80;99.90;;;;;;5133610;27;20198;-67
2022/01/28 12:13:00;;;;;;;1.80;1.33;;;4.70;99.90;;;;;;5137018;27;20199;-68
2022/01/28 12:15:31;;;;;;;2.43;1.30;;;4.70;99.90;;;;;;5125921;27;20203;-67
2022/01/28 12:18:10;;;;;;;2.63;1.53;;;4.60;99.90;;;;;;5121718;27;20713;-67
2022/01/28 12:20:45;;;;;;;1.53;1.10;;;4.60;99.90;;;;;;5125316;27;20580;-67
2022/01/28 12:23:37;;;;;;;2.07;1.30;;;4.60;99.90;;;;;;5132548;27;20663;-68
2022/01/28 12:26:04;;;;;;;3.30;1.53;;;4.50;99.90;;;;;;5133181;27;20561;-67
2022/01/28 12:28:49;;;;;;;1.77;1.30;;;4.50;99.90;;;;;;5132926;27;20392;-67
2022/01/28 12:31:27;;;;;;;2.47;1.10;;;4.40;99.90;;;;;;5137238;27;20672;-67
2022/01/28 12:33:56;;;;;;;1.43;1.03;;;4.40;99.90;;;;;;5132806;27;20199;-67
2022/01/28 12:36:25;;;;;;;1.30;1.20;;;4.40;99.90;;;;;;5131071;27;20212;-65
2022/01/28 12:39:07;;;;;;;1.33;1.10;;;4.30;99.90;;;;;;5131355;27;20306;-66
2022/01/28 12:41:43;;;;;;;1.23;1.13;;;4.30;99.90;;;;;;5132591;27;20198;-66
2022/01/28 12:44:11;;;;;;;3.23;1.10;;;4.40;99.90;;;;;;5132071;27;20205;-66
2022/01/28 12:46:40;;;;;;;1.40;1.13;;;4.30;99.90;;;;;;5132477;27;20751;-67
2022/01/28 12:49:10;;;;;;;2.17;1.30;;;4.40;99.90;;;;;;5133716;27;20209;-67
2022/01/28 12:51:39;;;;;;;1.00;0.80;;;4.30;99.90;;;;;;5135133;27;20203;-67
2022/01/28 12:54:07;;;;;;;2.57;1.33;;;4.40;99.90;;;;;;5132356;27;20203;-67
2022/01/28 12:56:36;;;;;;;1.27;0.90;;;4.40;99.90;;;;;;5129385;27;20305;-67
2022/01/28 12:59:04;;;;;;;2.80;1.20;;;4.30;99.90;;;;;;5134271;27;20218;-67
2022/01/28 13:01:31;;;;;;;1.93;0.90;;;4.30;99.90;;;;;;5135085;27;20631;-66
2022/01/28 13:04:09;;;;;;;1.60;1.00;;;4.30;99.90;;;;;;5130847;27;20204;-68
2022/01/28 13:06:53;;;;;;;1.60;1.10;;;4.30;99.90;;;;;;5137145;27;20289;-72
2022/01/28 13:09:22;;;;;;;1.03;0.90;;;4.20;99.90;;;;;;5117314;27;20257;-70
2022/01/28 13:11:51;;;;;;;3.47;1.40;;;4.30;99.90;;;;;;5136500;27;20200;-71
2022/01/28 13:14:21;;;;;;;1.60;1.37;;;4.30;99.90;;;;;;5132407;27;20282;-73
2022/01/28 13:16:50;;;;;;;2.30;1.53;;;4.30;99.90;;;;;;5131768;27;20540;-68
2022/01/28 13:19:18;;;;;;;1.00;0.80;;;4.30;99.90;;;;;;5128439;27;20231;-72
2022/01/28 13:21:48;;;;;;;3.37;0.90;;;4.30;99.90;;;;;;5134731;27;20217;-70
2022/01/28 13:24:17;;;;;;;1.90;0.80;;;4.30;99.90;;;;;;5140451;27;20203;-71
2022/01/28 13:26:55;;;;;;;0.80;0.70;;;4.30;99.90;;;;;;5138166;27;20203;-70
2022/01/28 13:29:31;;;;;;;1.60;1.03;;;4.40;99.90;;;;;;5129307;27;20203;-68
2022/01/28 13:31:59;;;;;;;1.47;0.87;;;4.40;99.90;;;;;;5132775;27;20489;-69
2022/01/28 13:34:28;;;;;;;2.30;0.90;;;4.30;99.90;;;;;;5132432;27;20196;-73
2022/01/28 13:36:57;;;;;;;1.10;0.90;;;4.30;99.90;;;;;;5143789;27;20230;-70
2022/01/28 13:39:28;;;;;;;1.63;0.80;;;4.30;99.90;;;;;;5136710;27;20234;-71
2022/01/28 13:42:09;;;;;;;1.00;0.80;;;4.30;99.90;;;;;;5128572;27;20226;-69
2022/01/28 13:44:38;;;;;;;1.27;0.80;;;4.30;99.90;;;;;;5135659;27;20722;-74
2022/01/28 13:47:06;;;;;;;1.30;0.97;;;4.30;99.90;;;;;;5133674;27;20231;-73
2022/01/28 13:49:36;;;;;;;1.47;1.00;;;4.30;99.90;;;;;;5132207;27;20315;-71
2022/01/28 13:52:12;;;;;;;1.87;0.77;;;4.30;99.90;;;;;;5134960;27;20686;-69
2022/01/28 13:54:39;;;;;;;1.50;0.77;;;4.30;99.90;;;;;;5131881;27;20230;-71
2022/01/28 13:57:08;;;;;;;1.10;0.60;;;4.40;99.90;;;;;;5136108;27;20313;-74
2022/01/28 13:59:39;;;;;;;0.90;0.80;;;4.40;99.90;;;;;;5136601;27;20218;-71
2022/01/28 14:02:15;;;;;;;1.93;1.00;;;4.40;99.90;;;;;;5132916;27;20258;-72
2022/01/28 14:04:46;;;;;;;0.80;0.80;;;4.40;99.90;;;;;;5132856;27;20203;-72
2022/01/28 14:07:16;;;;;;;2.20;0.90;;;4.40;99.90;;;;;;5116303;27;20227;-72
2022/01/28 14:09:45;;;;;;;1.37;1.20;;;4.40;99.90;;;;;;5122348;27;20199;-71